Time;durP1;ratioP1;P1;durP2;ratioP2;P2;SDS_P1;SDS_P2;PMS_P1;PMS_P2;Temp;Humidity;BMP_temperature;BMP_pressure;BME280_temperature;BME280_humidity;BME280_pressure;Samples;Min_cycle;Max_cycle;Signal;HPM_P1;HPM_P2
2022/08/24 00:02:06;;;;;;;5.00;1.90;;;;;18.90;97430.00;;;;110855;1249;41163;-62
2022/08/24 00:04:37;;;;;;;7.90;2.30;;;;;18.90;97434.20;;;;110980;1249;41295;-62
2022/08/24 00:07:08;;;;;;;3.90;1.80;;;;;18.90;97436.00;;;;110972;1250;41856;-61
2022/08/24 00:09:49;;;;;;;7.60;1.90;;;;;18.90;97437.00;;;;110808;1250;41163;-62
2022/08/24 00:12:20;;;;;;;;;;;;;18.90;97440.80;;;;110895;1249;41267;-62
2022/08/24 00:14:53;;;;;;;4.50;1.90;;;;;18.82;97434.20;;;;110864;1249;41251;-62
2022/08/24 00:17:24;;;;;;;7.80;2.10;;;;;18.82;97431.20;;;;110761;1251;41187;-62
2022/08/24 00:19:54;;;;;;;5.80;2.30;;;;;18.80;97432.40;;;;110812;1249;41154;-61
2022/08/24 00:22:23;;;;;;;11.50;2.40;;;;;18.80;97433.60;;;;110604;1250;41261;-62
2022/08/24 00:24:55;;;;;;;6.90;2.40;;;;;18.80;97431.80;;;;110658;1249;41143;-61
2022/08/24 00:27:27;;;;;;;9.30;2.30;;;;;18.80;97427.40;;;;110620;1249;41156;-62
2022/08/24 00:29:58;;;;;;;5.60;2.20;;;;;18.80;97423.80;;;;110636;1250;41133;-62
2022/08/24 00:32:28;;;;;;;5.80;2.30;;;;;18.80;97424.40;;;;110798;1249;41604;-62
2022/08/24 00:34:58;;;;;;;6.40;2.30;;;;;18.80;97420.00;;;;110738;1250;41138;-61
2022/08/24 00:37:28;;;;;;;6.00;2.20;;;;;18.80;97415.20;;;;110780;1250;42076;-62
2022/08/24 00:39:59;;;;;;;7.60;2.50;;;;;18.80;97408.80;;;;110755;1249;41153;-62
2022/08/24 00:42:30;;;;;;;6.60;2.50;;;;;18.80;97408.60;;;;110775;1250;41612;-62
2022/08/24 00:45:01;;;;;;;6.90;2.30;;;;;18.78;97409.80;;;;110621;1249;41382;-62
2022/08/24 00:47:57;;;;;;;13.10;3.10;;;;;18.76;97403.80;;;;110591;1249;41328;-62
2022/08/24 00:50:47;;;;;;;7.50;2.60;;;;;18.70;97402.20;;;;110619;1249;41157;-62
2022/08/24 00:53:24;;;;;;;7.10;3.00;;;;;18.70;97407.20;;;;110638;1249;41141;-62
2022/08/24 00:55:57;;;;;;;6.70;2.80;;;;;18.62;97403.80;;;;110645;1248;41150;-62
2022/08/24 00:58:38;;;;;;;10.20;2.60;;;;;18.60;97396.20;;;;110623;1249;42239;-62
2022/08/24 01:01:12;;;;;;;5.70;2.40;;;;;18.60;97393.00;;;;110811;1250;41158;-62
2022/08/24 01:03:45;;;;;;;6.40;2.50;;;;;18.60;97396.60;;;;110976;1249;41836;-62
2022/08/24 01:06:15;;;;;;;5.20;2.20;;;;;18.60;97395.80;;;;110749;1250;42370;-62
2022/08/24 01:08:45;;;;;;;7.70;2.50;;;;;18.52;97396.20;;;;110954;1249;41575;-62
2022/08/24 01:11:21;;;;;;;7.30;2.60;;;;;18.54;97399.60;;;;110682;1250;41635;-61
2022/08/24 01:13:52;;;;;;;5.60;2.10;;;;;18.56;97400.60;;;;110507;1250;41276;-62
2022/08/24 01:19:29;;;;;;;7.00;2.60;;;;;18.58;97400.40;;;;110781;1249;41632;-62
2022/08/24 01:22:29;;;;;;;5.00;2.30;;;;;18.50;97396.40;;;;110740;1252;41240;-62
2022/08/24 01:24:59;;;;;;;6.40;2.30;;;;;18.50;97389.80;;;;110576;1252;41190;-62
2022/08/24 01:27:29;;;;;;;4.20;1.90;;;;;18.50;97388.20;;;;110774;1249;41149;-62
2022/08/24 01:30:03;;;;;;;5.60;1.90;;;;;18.50;97386.80;;;;110549;1252;41451;-62
2022/08/24 01:32:33;;;;;;;6.80;2.20;;;;;18.50;97388.00;;;;110789;1249;41275;-62
2022/08/24 01:35:06;;;;;;;4.50;1.90;;;;;18.50;97382.00;;;;110738;1252;41614;-63
2022/08/24 01:37:38;;;;;;;12.70;3.30;;;;;18.50;97379.80;;;;110764;1249;41999;-63
2022/08/24 01:40:11;;;;;;;7.30;2.50;;;;;18.40;97381.80;;;;110768;1249;42314;-63
2022/08/24 01:42:51;;;;;;;10.40;3.60;;;;;18.40;97382.00;;;;110609;1249;41156;-63
2022/08/24 01:45:23;;;;;;;9.70;3.70;;;;;18.30;97377.60;;;;110573;1252;41158;-63
2022/08/24 01:47:54;;;;;;;10.30;3.10;;;;;18.30;97377.60;;;;110620;1250;41288;-63
2022/08/24 01:50:25;;;;;;;7.70;3.00;;;;;18.20;97373.00;;;;110584;1249;42233;-63
2022/08/24 01:52:57;;;;;;;7.10;2.60;;;;;18.20;97370.40;;;;110620;1251;41143;-63
2022/08/24 01:55:36;;;;;;;14.60;2.90;;;;;18.26;97367.40;;;;110718;1249;41142;-63
2022/08/24 01:58:07;;;;;;;9.80;3.00;;;;;18.20;97371.00;;;;110770;1252;41155;-63
2022/08/24 02:00:43;;;;;;;9.70;3.10;;;;;18.20;97368.40;;;;110755;1250;41772;-63
2022/08/24 02:03:15;;;;;;;6.30;2.70;;;;;18.10;97370.00;;;;110786;1250;41261;-63
2022/08/24 02:05:47;;;;;;;9.00;2.90;;;;;18.04;97371.60;;;;110658;1250;41260;-63
2022/08/24 02:08:19;;;;;;;6.90;2.40;;;;;18.08;97374.00;;;;110690;1252;41175;-63
2022/08/24 02:10:55;;;;;;;10.30;2.40;;;;;18.10;97372.80;;;;110783;1252;41363;-62
2022/08/24 02:13:27;;;;;;;8.10;2.60;;;;;18.10;97371.60;;;;110674;1252;41612;-63
2022/08/24 02:15:57;;;;;;;5.70;2.40;;;;;18.08;97376.60;;;;110724;1251;41156;-63
2022/08/24 02:18:32;;;;;;;6.80;2.40;;;;;18.06;97378.40;;;;110672;1251;41251;-63
2022/08/24 02:21:01;;;;;;;6.50;2.10;;;;;18.00;97379.60;;;;110684;1251;41152;-63
2022/08/24 02:23:32;;;;;;;;;;;;;18.00;97378.40;;;;110735;1251;42936;-63
2022/08/24 02:26:04;;;;;;;5.90;2.30;;;;;18.00;97377.00;;;;110778;1251;42112;-63
2022/08/24 02:28:34;;;;;;;8.30;2.60;;;;;18.00;97380.00;;;;110687;1251;41264;-63
2022/08/24 02:31:06;;;;;;;5.60;2.10;;;;;18.00;97382.80;;;;110681;1252;41264;-63
2022/08/24 02:33:37;;;;;;;7.50;2.50;;;;;18.00;97384.80;;;;110608;1251;41616;-63
2022/08/24 02:36:10;;;;;;;11.10;3.50;;;;;18.00;97386.40;;;;110559;1251;41620;-63
2022/08/24 02:38:54;;;;;;;8.00;2.50;;;;;18.00;97384.40;;;;110823;1252;41581;-63
2022/08/24 02:41:24;;;;;;;8.50;2.60;;;;;17.90;97381.20;;;;110550;1252;41273;-63
2022/08/24 02:43:55;;;;;;;6.50;2.40;;;;;17.90;97382.00;;;;110555;1251;41280;-63
2022/08/24 02:46:27;;;;;;;6.60;2.30;;;;;17.90;97377.20;;;;110563;1252;41143;-63
2022/08/24 02:48:58;;;;;;;5.60;2.20;;;;;17.90;97375.80;;;;110576;1252;42087;-62
2022/08/24 02:51:46;;;;;;;6.90;2.40;;;;;17.80;97369.40;;;;110623;1250;41158;-63
2022/08/24 02:54:18;;;;;;;5.80;2.30;;;;;17.80;97368.20;;;;110555;1252;42458;-63
2022/08/24 02:56:52;;;;;;;5.80;2.30;;;;;17.80;97368.60;;;;110798;1250;41247;-63
2022/08/24 02:59:23;;;;;;;6.60;2.60;;;;;17.74;97361.60;;;;110618;1252;41788;-63
2022/08/24 03:01:53;;;;;;;;;;;;;17.70;97361.20;;;;110617;1252;41386;-63
2022/08/24 03:04:23;;;;;;;8.90;3.20;;;;;17.64;97365.40;;;;110615;1252;41495;-62
2022/08/24 03:06:53;;;;;;;8.10;2.80;;;;;17.60;97366.80;;;;110613;1252;41999;-62
2022/08/24 03:09:22;;;;;;;6.50;2.50;;;;;17.60;97370.80;;;;110570;1252;41144;-62
2022/08/24 03:11:52;;;;;;;5.90;2.30;;;;;17.50;97378.80;;;;110725;1250;41689;-62
2022/08/24 03:14:21;;;;;;;5.30;2.50;;;;;17.50;97378.80;;;;110719;1251;41133;-62
2022/08/24 03:16:51;;;;;;;7.70;2.70;;;;;17.50;97376.60;;;;110600;1251;41604;-62
2022/08/24 03:19:21;;;;;;;9.80;3.10;;;;;17.40;97375.80;;;;110644;1251;41593;-62
2022/08/24 03:21:52;;;;;;;71.00;6.90;;;;;17.40;97382.00;;;;110559;1251;41651;-62
2022/08/24 03:24:22;;;;;;;87.90;9.20;;;;;17.40;97389.00;;;;110611;1250;41165;-61
2022/08/24 03:26:52;;;;;;;11.00;3.80;;;;;17.30;97397.60;;;;110682;1252;41217;-61
2022/08/24 03:29:22;;;;;;;19.80;3.20;;;;;17.40;97397.80;;;;110686;1250;42238;-61
2022/08/24 03:31:53;;;;;;;16.80;3.10;;;;;17.40;97400.60;;;;110573;1252;41157;-62
2022/08/24 03:34:23;;;;;;;25.00;3.80;;;;;17.40;97406.60;;;;110578;1252;41325;-63
2022/08/24 03:36:53;;;;;;;7.10;2.20;;;;;17.40;97410.80;;;;110674;1251;41726;-62
2022/08/24 03:39:23;;;;;;;8.20;2.80;;;;;17.40;97409.20;;;;110655;1251;41164;-62
2022/08/24 03:41:54;;;;;;;6.10;2.60;;;;;17.40;97399.60;;;;110757;1249;41341;-63
2022/08/24 03:44:24;;;;;;;4.60;2.20;;;;;17.40;97399.80;;;;110513;1252;41669;-63
2022/08/24 03:46:54;;;;;;;;;;;;;17.32;97395.60;;;;110703;1252;41163;-63
2022/08/24 03:49:25;;;;;;;6.60;2.40;;;;;17.30;97394.20;;;;110531;1251;41289;-63
2022/08/24 03:51:55;;;;;;;6.20;2.30;;;;;17.30;97398.40;;;;110566;1250;41409;-63
2022/08/24 03:54:25;;;;;;;6.90;2.60;;;;;17.22;97398.40;;;;110563;1252;41159;-63
2022/08/24 03:56:57;;;;;;;7.10;2.60;;;;;17.20;97404.20;;;;110586;1249;41154;-63
2022/08/24 03:59:27;;;;;;;5.90;2.30;;;;;17.20;97401.20;;;;110563;1249;41264;-63
2022/08/24 04:01:58;;;;;;;9.50;3.50;;;;;17.20;97404.80;;;;110580;1252;41166;-63
2022/08/24 04:04:28;;;;;;;7.50;2.90;;;;;17.26;97400.40;;;;110612;1250;41160;-63
2022/08/24 04:06:58;;;;;;;12.50;3.10;;;;;17.26;97405.00;;;;110514;1252;41145;-63
2022/08/24 04:09:28;;;;;;;10.50;2.50;;;;;17.30;97399.00;;;;110544;1251;41285;-63
2022/08/24 04:11:58;;;;;;;33.00;3.90;;;;;17.34;97398.80;;;;110568;1251;41142;-63
2022/08/24 04:14:28;;;;;;;77.50;7.30;;;;;17.40;97412.40;;;;110574;1251;41228;-63
2022/08/24 04:17:03;;;;;;;98.50;6.50;;;;;17.36;97414.60;;;;110552;1251;41249;-63
2022/08/24 04:19:36;;;;;;;35.20;3.90;;;;;17.22;97422.60;;;;110538;1252;41601;-63
2022/08/24 04:22:05;;;;;;;39.00;2.70;;;;;17.24;97422.40;;;;110551;1252;41613;-63
2022/08/24 04:24:35;;;;;;;24.20;4.00;;;;;17.30;97425.20;;;;110550;1252;41714;-63
2022/08/24 04:27:04;;;;;;;77.50;6.60;;;;;17.40;97433.20;;;;110536;1252;41466;-62
2022/08/24 04:29:34;;;;;;;34.20;3.60;;;;;17.30;97443.20;;;;110405;1254;41982;-62
2022/08/24 04:32:03;;;;;;;26.40;3.10;;;;;17.30;97446.00;;;;110532;1253;41438;-62
2022/08/24 04:34:33;;;;;;;16.90;3.00;;;;;17.40;97453.00;;;;110514;1253;41678;-62
2022/08/24 04:37:02;;;;;;;8.70;2.90;;;;;17.52;97457.40;;;;110559;1252;41251;-62
2022/08/24 04:39:35;;;;;;;6.50;2.70;;;;;17.60;97457.80;;;;110408;1252;42386;-62
2022/08/24 04:42:19;;;;;;;7.90;2.60;;;;;17.76;97461.20;;;;110541;1252;41159;-62
2022/08/24 04:44:49;;;;;;;6.60;2.60;;;;;17.90;97455.60;;;;110434;1254;41168;-62
2022/08/24 04:47:19;;;;;;;7.50;2.50;;;;;18.00;97450.40;;;;110393;1252;41192;-62
2022/08/24 04:49:48;;;;;;;8.90;2.60;;;;;18.10;97451.00;;;;110556;1249;41319;-62
2022/08/24 04:52:19;;;;;;;6.90;2.60;;;;;18.20;97453.40;;;;110572;1252;41149;-62
2022/08/24 04:54:47;;;;;;;5.60;2.40;;;;;18.24;97450.60;;;;109531;1251;1421849;-63
2022/08/24 04:57:20;;;;;;;6.30;2.30;;;;;18.30;97458.80;;;;110580;1252;42257;-62
2022/08/24 04:59:49;;;;;;;5.60;2.10;;;;;18.40;97461.40;;;;110594;1253;41265;-62
2022/08/24 05:02:19;;;;;;;5.70;2.40;;;;;18.40;97458.80;;;;110520;1253;42135;-62
2022/08/24 05:04:49;;;;;;;6.40;2.20;;;;;18.50;97458.60;;;;110513;1253;41593;-61
2022/08/24 05:07:18;;;;;;;6.50;2.80;;;;;18.50;97456.20;;;;110570;1252;41397;-62
2022/08/24 05:09:48;;;;;;;7.50;2.70;;;;;18.52;97455.20;;;;110644;1249;41172;-64
2022/08/24 05:12:20;;;;;;;5.50;2.30;;;;;18.60;97449.40;;;;110704;1252;41273;-64
2022/08/24 05:14:59;;;;;;;5.60;2.50;;;;;18.70;97448.00;;;;110820;1249;41146;-62
2022/08/24 05:17:29;;;;;;;6.30;2.20;;;;;18.90;97446.80;;;;110625;1252;41276;-62
2022/08/24 05:19:58;;;;;;;5.70;2.10;;;;;19.00;97442.60;;;;110636;1252;41165;-62
2022/08/24 05:22:27;;;;;;;8.00;2.70;;;;;19.30;97440.00;;;;110620;1252;41264;-62
2022/08/24 05:24:57;;;;;;;5.30;2.40;;;;;19.50;97434.80;;;;110594;1252;41501;-62
2022/08/24 05:27:26;;;;;;;6.90;2.40;;;;;19.88;97423.00;;;;110572;1252;41144;-62
2022/08/24 05:29:55;;;;;;;6.60;2.30;;;;;20.30;97432.00;;;;110554;1252;41149;-62
2022/08/24 05:32:25;;;;;;;5.80;2.40;;;;;20.94;97419.00;;;;110570;1252;41251;-63
2022/08/24 05:34:54;;;;;;;5.60;2.50;;;;;21.82;97422.60;;;;110603;1251;41149;-62
2022/08/24 05:37:23;;;;;;;6.50;2.50;;;;;22.70;97409.00;;;;110620;1249;41260;-62
2022/08/24 05:40:08;;;;;;;5.00;2.30;;;;;23.60;97406.00;;;;110647;1250;41154;-62
2022/08/24 05:42:41;;;;;;;9.10;2.70;;;;;24.54;97408.20;;;;110556;1251;41463;-62
2022/08/24 05:45:11;;;;;;;6.80;2.70;;;;;25.34;97408.80;;;;110637;1251;42132;-62
2022/08/24 05:47:40;;;;;;;6.60;2.50;;;;;25.40;97435.80;;;;110563;1251;41255;-62
2022/08/24 05:50:25;;;;;;;8.20;2.30;;;;;24.84;97443.20;;;;110574;1252;41603;-62
2022/08/24 05:52:54;;;;;;;7.70;2.40;;;;;24.34;97450.80;;;;110519;1252;41165;-62
2022/08/24 05:55:23;;;;;;;6.70;2.30;;;;;23.72;97437.00;;;;110390;1253;41736;-62
2022/08/24 05:57:52;;;;;;;6.00;2.30;;;;;24.14;97426.00;;;;110561;1253;41364;-63
2022/08/24 06:00:24;;;;;;;6.10;2.20;;;;;24.60;97426.20;;;;110526;1252;41627;-63
2022/08/24 06:02:55;;;;;;;5.90;2.20;;;;;24.90;97437.40;;;;110594;1253;41164;-63
2022/08/24 06:05:24;;;;;;;5.10;2.20;;;;;24.94;97418.20;;;;110649;1251;41170;-63
2022/08/24 06:07:52;;;;;;;4.40;1.90;;;;;25.66;97412.60;;;;110835;1250;41143;-63
2022/08/24 06:10:21;;;;;;;6.00;2.10;;;;;26.52;97416.00;;;;110579;1252;42061;-63
2022/08/24 06:13:07;;;;;;;7.40;2.20;;;;;27.48;97427.80;;;;110620;1250;41383;-63
2022/08/24 06:15:37;;;;;;;4.70;2.00;;;;;27.80;97433.40;;;;110535;1252;41156;-63
2022/08/24 06:18:07;;;;;;;5.50;1.90;;;;;28.18;97430.40;;;;110595;1252;41147;-63
2022/08/24 06:20:39;;;;;;;5.30;2.00;;;;;28.62;97430.60;;;;110573;1252;41722;-63
2022/08/24 06:23:09;;;;;;;4.50;1.90;;;;;28.98;97427.80;;;;110892;1250;41645;-63
2022/08/24 06:28:31;;;;;;;5.30;1.90;;;;;28.12;97429.00;;;;110788;1251;42231;-63
2022/08/24 06:31:04;;;;;;;3.80;1.70;;;;;27.66;97424.40;;;;110544;1252;41505;-63
2022/08/24 06:33:33;;;;;;;5.40;1.70;;;;;27.22;97434.60;;;;110660;1252;41270;-64
2022/08/24 06:36:03;;;;;;;9.90;2.00;;;;;27.00;97437.80;;;;110611;1252;41141;-63
2022/08/24 06:38:32;;;;;;;5.30;1.70;;;;;27.20;97445.00;;;;110813;1249;41908;-63
2022/08/24 06:41:04;;;;;;;3.40;1.70;;;;;27.38;97441.60;;;;110920;1250;41152;-62
2022/08/24 06:43:34;;;;;;;5.50;2.00;;;;;27.44;97450.60;;;;110911;1250;41157;-62
2022/08/24 06:46:10;;;;;;;5.00;1.90;;;;;27.10;97452.40;;;;110731;1249;41141;-62
2022/08/24 06:48:41;;;;;;;5.60;1.90;;;;;26.54;97452.00;;;;110630;1250;41148;-63
2022/08/24 06:51:13;;;;;;;3.00;1.50;;;;;25.48;97448.00;;;;110556;1253;41164;-62
2022/08/24 06:53:42;;;;;;;2.90;1.50;;;;;25.60;97451.60;;;;110590;1252;41931;-63
2022/08/24 06:56:11;;;;;;;5.00;1.70;;;;;25.60;97449.80;;;;110788;1249;41261;-63
2022/08/24 06:58:40;;;;;;;4.00;1.80;;;;;25.82;97455.40;;;;110595;1252;41474;-63
2022/08/24 07:01:17;;;;;;;4.70;1.80;;;;;26.38;97459.00;;;;110562;1252;41217;-63
2022/08/24 07:03:46;;;;;;;5.70;1.80;;;;;26.74;97458.40;;;;110651;1249;41642;-63
2022/08/24 07:06:22;;;;;;;7.70;1.90;;;;;26.92;97457.20;;;;110581;1252;41277;-63
2022/08/24 07:08:52;;;;;;;7.30;2.20;;;;;26.50;97456.20;;;;110765;1252;41382;-63
2022/08/24 07:11:23;;;;;;;4.70;2.00;;;;;27.32;97458.80;;;;110641;1251;41154;-64
2022/08/24 07:13:51;;;;;;;4.50;1.60;;;;;28.38;97460.40;;;;110802;1252;41618;-63
2022/08/24 07:16:22;;;;;;;5.60;2.10;;;;;29.00;97462.60;;;;110576;1252;41196;-63
2022/08/24 07:18:53;;;;;;;5.30;1.90;;;;;29.38;97466.60;;;;110554;1252;41385;-63
2022/08/24 07:21:22;;;;;;;3.80;1.80;;;;;29.34;97470.00;;;;110410;1252;41905;-63
2022/08/24 07:23:57;;;;;;;7.60;1.60;;;;;29.06;97471.40;;;;110556;1252;41153;-63
2022/08/24 07:26:29;;;;;;;2.90;1.40;;;;;28.56;97473.20;;;;110716;1251;41145;-63
2022/08/24 07:29:18;;;;;;;2.60;1.30;;;;;28.80;97473.00;;;;110991;1250;41165;-63
2022/08/24 07:32:09;;;;;;;4.50;1.70;;;;;28.90;97474.40;;;;110939;1250;41257;-63
2022/08/24 07:34:40;;;;;;;3.50;1.60;;;;;28.60;97478.00;;;;110947;1250;41979;-64
2022/08/24 07:37:09;;;;;;;5.60;1.60;;;;;29.30;97479.80;;;;110955;1249;41212;-63
2022/08/24 07:39:40;;;;;;;5.60;1.60;;;;;29.70;97472.80;;;;110899;1250;41419;-63
2022/08/24 07:42:10;;;;;;;3.40;1.50;;;;;30.42;97469.00;;;;110724;1250;41131;-63
2022/08/24 07:44:42;;;;;;;5.50;1.80;;;;;31.20;97467.80;;;;110568;1249;41632;-63
2022/08/24 07:47:11;;;;;;;5.10;1.80;;;;;31.12;97468.20;;;;110592;1252;41156;-63
2022/08/24 07:50:00;;;;;;;3.50;1.50;;;;;31.00;97465.80;;;;110732;1251;41194;-63
2022/08/24 07:52:31;;;;;;;4.90;1.80;;;;;31.10;97474.00;;;;110613;1252;41602;-64
2022/08/24 07:55:00;;;;;;;3.90;1.80;;;;;30.30;97473.40;;;;110568;1252;41520;-64
2022/08/24 07:57:30;;;;;;;6.30;1.60;;;;;30.02;97476.60;;;;110605;1252;41506;-64
2022/08/24 08:00:01;;;;;;;4.50;1.60;;;;;30.20;97470.60;;;;110701;1251;41623;-63
2022/08/24 08:02:30;;;;;;;3.70;1.60;;;;;30.50;97472.00;;;;110713;1251;41156;-63
2022/08/24 08:05:04;;;;;;;4.80;1.40;;;;;31.02;97471.80;;;;110553;1251;41252;-64
2022/08/24 08:07:33;;;;;;;2.80;1.40;;;;;31.66;97467.80;;;;110649;1252;41442;-63
2022/08/24 08:10:04;;;;;;;6.20;1.90;;;;;31.80;97463.80;;;;110764;1251;41278;-64
2022/08/24 08:12:34;;;;;;;7.50;2.30;;;;;31.90;97460.00;;;;110645;1252;41617;-65
2022/08/24 08:15:05;;;;;;;5.30;1.90;;;;;32.00;97452.00;;;;110708;1252;41490;-64
2022/08/24 08:17:36;;;;;;;4.50;1.70;;;;;31.90;97448.20;;;;110771;1252;41194;-65
2022/08/24 08:20:07;;;;;;;6.60;2.00;;;;;32.50;97447.00;;;;110722;1251;41828;-64
2022/08/24 08:25:48;;;;;;;4.40;1.70;;;;;32.40;97444.60;;;;110585;1251;41269;-64
2022/08/24 08:28:21;;;;;;;4.70;1.90;;;;;33.04;97448.00;;;;110550;1252;41154;-64
2022/08/24 08:30:54;;;;;;;6.30;1.70;;;;;33.34;97445.40;;;;110577;1252;41265;-64
2022/08/24 08:33:23;;;;;;;5.00;1.90;;;;;33.86;97448.00;;;;110548;1252;41155;-64
2022/08/24 08:36:09;;;;;;;5.20;1.60;;;;;34.30;97443.60;;;;110534;1252;41261;-64
2022/08/24 08:38:43;;;;;;;2.40;1.40;;;;;34.84;97445.00;;;;110540;1252;41966;-64
2022/08/24 08:41:18;;;;;;;3.40;1.50;;;;;35.10;97440.80;;;;110551;1251;42190;-64
2022/08/24 08:44:38;;;;;;;4.20;1.20;;;;;35.80;97444.60;;;;110532;1252;41157;-64
2022/08/24 08:47:06;;;;;;;;;;;;;36.64;97440.20;;;;110551;1252;41156;-64
2022/08/24 08:49:46;;;;;;;;;;;;;36.86;97437.20;;;;110546;1251;41869;-64
2022/08/24 08:52:30;;;;;;;4.10;1.30;;;;;36.96;97428.20;;;;110559;1253;41147;-64
2022/08/24 08:55:04;;;;;;;3.10;1.50;;;;;37.40;97431.20;;;;110513;1253;41160;-65
2022/08/24 08:57:59;;;;;;;5.30;1.60;;;;;37.94;97430.40;;;;110552;1253;41155;-64
2022/08/24 09:01:17;;;;;;;5.30;1.60;;;;;38.30;97440.60;;;;110540;1253;41162;-64
2022/08/24 09:04:11;;;;;;;1.70;1.30;;;;;38.70;97443.40;;;;110420;1253;41130;-64
2022/08/24 09:07:14;;;;;;;5.60;1.50;;;;;39.14;97442.40;;;;110526;1252;41165;-65
2022/08/24 09:10:12;;;;;;;4.40;1.60;;;;;39.50;97436.20;;;;110538;1251;42378;-65
2022/08/24 09:13:08;;;;;;;10.60;1.50;;;;;39.70;97438.80;;;;110558;1252;41649;-65
2022/08/24 09:16:07;;;;;;;5.60;1.80;;;;;39.90;97439.60;;;;110552;1253;41135;-65
2022/08/24 09:18:43;;;;;;;4.80;1.80;;;;;39.90;97439.40;;;;110721;1251;41162;-64
2022/08/24 09:21:36;;;;;;;3.10;1.40;;;;;39.80;97442.40;;;;110627;1252;41616;-64
2022/08/24 09:24:06;;;;;;;3.50;1.50;;;;;39.64;97441.40;;;;110602;1251;41256;-64
2022/08/24 09:26:54;;;;;;;4.10;1.60;;;;;39.80;97441.20;;;;110576;1252;41765;-64
2022/08/24 09:29:52;;;;;;;3.30;1.50;;;;;39.78;97435.20;;;;110608;1251;41546;-64
2022/08/24 09:32:38;;;;;;;4.20;1.30;;;;;39.90;97430.40;;;;110657;1252;41140;-64
2022/08/24 09:35:19;;;;;;;5.20;1.40;;;;;39.98;97433.00;;;;110668;1250;41617;-64
2022/08/24 09:37:59;;;;;;;4.00;1.30;;;;;40.30;97432.20;;;;110582;1250;41343;-64
2022/08/24 09:40:37;;;;;;;3.00;1.30;;;;;40.66;97431.60;;;;110728;1249;41261;-64
2022/08/24 09:43:08;;;;;;;3.40;1.40;;;;;40.90;97427.80;;;;110629;1250;41609;-64
2022/08/24 09:45:49;;;;;;;3.20;1.20;;;;;40.92;97421.80;;;;110660;1250;41146;-64
2022/08/24 09:48:38;;;;;;;4.20;1.50;;;;;40.70;97425.60;;;;110699;1250;41957;-64
2022/08/24 09:51:31;;;;;;;2.80;1.40;;;;;40.74;97418.40;;;;110654;1250;41631;-64
2022/08/24 09:54:18;;;;;;;1.90;1.20;;;;;40.90;97418.80;;;;110785;1250;42368;-64
2022/08/24 09:57:02;;;;;;;3.40;1.30;;;;;40.70;97415.80;;;;110591;1250;41190;-64
2022/08/24 09:59:46;;;;;;;2.30;1.30;;;;;40.70;97417.80;;;;110677;1250;41431;-64
2022/08/24 10:02:23;;;;;;;2.40;1.30;;;;;40.70;97414.40;;;;110728;1250;41418;-64
2022/08/24 10:04:55;;;;;;;2.10;1.20;;;;;40.72;97410.40;;;;110708;1250;41234;-65
2022/08/24 10:07:50;;;;;;;3.00;1.30;;;;;40.70;97408.60;;;;110592;1251;41930;-64
2022/08/24 10:10:27;;;;;;;2.20;1.20;;;;;40.98;97407.40;;;;110557;1252;41948;-64
2022/08/24 10:13:07;;;;;;;3.90;1.30;;;;;41.02;97400.20;;;;110683;1250;41740;-65
2022/08/24 10:15:50;;;;;;;3.80;1.30;;;;;41.20;97402.20;;;;110749;1250;41151;-65
2022/08/24 10:18:49;;;;;;;4.70;1.40;;;;;41.40;97408.40;;;;110805;1250;43090;-65
2022/08/24 10:21:35;;;;;;;5.00;1.30;;;;;41.80;97402.00;;;;110845;1250;41568;-65
2022/08/24 10:24:19;;;;;;;3.40;1.20;;;;;41.80;97405.40;;;;110685;1249;41266;-65
2022/08/24 10:26:56;;;;;;;4.60;1.50;;;;;42.12;97399.80;;;;110700;1250;41671;-65
2022/08/24 10:29:44;;;;;;;3.20;1.20;;;;;42.50;97398.40;;;;110651;1250;41265;-65
2022/08/24 10:32:36;;;;;;;2.90;1.20;;;;;42.82;97400.80;;;;110737;1249;42528;-66
2022/08/24 10:35:13;;;;;;;3.40;1.40;;;;;42.70;97398.60;;;;110621;1250;41735;-66
2022/08/24 10:41:10;;;;;;;2.70;1.30;;;;;42.20;97400.40;;;;110523;1253;42104;-66
2022/08/24 10:44:15;;;;;;;1.80;1.10;;;;;42.00;97402.80;;;;110681;1252;41725;-66
2022/08/24 10:47:10;;;;;;;4.70;1.10;;;;;41.70;97405.40;;;;110579;1252;41778;-66
2022/08/24 10:49:45;;;;;;;3.50;1.30;;;;;41.40;97404.40;;;;110703;1252;41159;-66
2022/08/24 10:53:04;;;;;;;2.80;1.10;;;;;41.30;97407.20;;;;110725;1252;41171;-66
2022/08/24 10:55:34;;;;;;;2.80;1.00;;;;;41.38;97405.20;;;;110159;1258;41170;-66
2022/08/24 10:58:21;;;;;;;2.40;1.20;;;;;41.50;97406.20;;;;110546;1254;41570;-66
2022/08/24 11:00:50;;;;;;;3.90;1.40;;;;;41.46;97405.20;;;;110635;1251;41252;-66
2022/08/24 11:03:22;;;;;;;5.20;1.40;;;;;41.50;97405.80;;;;110572;1252;41266;-67
2022/08/24 11:05:56;;;;;;;2.40;1.10;;;;;41.22;97405.80;;;;110593;1253;41597;-68
2022/08/24 11:08:26;;;;;;;4.10;1.30;;;;;41.04;97404.40;;;;110555;1252;41160;-68
2022/08/24 11:11:12;;;;;;;2.60;1.30;;;;;40.96;97396.60;;;;110657;1251;41128;-67
2022/08/24 11:14:00;;;;;;;2.70;1.30;;;;;40.88;97399.00;;;;110697;1251;41156;-67
2022/08/24 11:16:37;;;;;;;3.20;1.40;;;;;40.90;97396.40;;;;110656;1251;41588;-67
2022/08/24 11:19:12;;;;;;;3.00;1.40;;;;;40.90;97395.00;;;;110858;1250;41167;-70
2022/08/24 11:21:50;;;;;;;4.70;1.50;;;;;41.00;97394.60;;;;110849;1250;41158;-69
2022/08/24 11:24:22;;;;;;;2.20;1.40;;;;;40.90;97393.20;;;;110669;1252;41261;-68
2022/08/24 11:27:02;;;;;;;3.80;1.30;;;;;41.20;97391.20;;;;110640;1251;40739;-68
2022/08/24 11:29:52;;;;;;;2.40;1.30;;;;;41.48;97392.80;;;;110549;1252;41380;-68
2022/08/24 11:32:43;;;;;;;3.10;1.20;;;;;42.08;97385.20;;;;110548;1250;41141;-69
2022/08/24 11:35:27;;;;;;;2.50;1.30;;;;;42.70;97381.60;;;;110615;1250;41169;-69
2022/08/24 11:38:08;;;;;;;2.60;1.20;;;;;43.00;97381.80;;;;110493;1252;41165;-68
2022/08/24 11:40:41;;;;;;;2.60;1.30;;;;;43.10;97377.20;;;;110570;1252;42392;-69
2022/08/24 11:43:32;;;;;;;2.60;1.30;;;;;43.30;97380.20;;;;110621;1250;41151;-69
2022/08/24 11:46:17;;;;;;;4.70;1.50;;;;;43.78;97379.00;;;;110698;1250;41333;-69
2022/08/24 11:48:49;;;;;;;2.70;1.20;;;;;44.02;97378.00;;;;110655;1250;41247;-69
2022/08/24 11:51:55;;;;;;;2.20;1.20;;;;;44.40;97373.40;;;;110536;1251;41160;-69
2022/08/24 11:54:32;;;;;;;3.20;1.00;;;;;44.28;97376.60;;;;110702;1251;42544;-69
2022/08/24 11:57:11;;;;;;;2.50;1.40;;;;;44.58;97366.20;;;;110578;1251;41140;-69
2022/08/24 12:00:14;;;;;;;2.80;1.10;;;;;44.66;97365.40;;;;110612;1252;41602;-69
2022/08/24 12:03:07;;;;;;;2.10;1.10;;;;;44.50;97370.00;;;;110673;1249;41133;-70
2022/08/24 12:05:49;;;;;;;3.00;1.00;;;;;44.80;97373.80;;;;110630;1251;41151;-69
2022/08/24 12:08:38;;;;;;;3.80;1.30;;;;;44.70;97371.80;;;;110688;1252;41747;-70
2022/08/24 12:11:40;;;;;;;2.90;1.10;;;;;44.78;97369.40;;;;110670;1252;41594;-69
2022/08/24 12:14:48;;;;;;;3.20;1.30;;;;;45.16;97371.00;;;;110609;1252;41265;-70
2022/08/24 12:17:38;;;;;;;6.60;1.40;;;;;45.32;97364.00;;;;110656;1251;41266;-70
2022/08/24 12:20:30;;;;;;;4.00;1.40;;;;;45.00;97369.00;;;;110637;1251;41175;-70
2022/08/24 12:23:05;;;;;;;4.20;1.30;;;;;44.88;97366.60;;;;110579;1251;41937;-70
2022/08/24 12:28:39;;;;;;;2.60;1.20;;;;;44.46;97372.60;;;;110732;1251;42265;-70
2022/08/24 12:31:32;;;;;;;4.60;1.30;;;;;44.78;97368.20;;;;110444;1254;41643;-70
2022/08/24 12:34:07;;;;;;;4.70;1.30;;;;;44.80;97364.00;;;;110641;1251;42392;-70
2022/08/24 12:37:06;;;;;;;4.10;1.40;;;;;44.72;97364.00;;;;110609;1251;41279;-70
2022/08/24 12:40:18;;;;;;;3.90;1.10;;;;;44.72;97357.60;;;;110691;1252;41243;-70
2022/08/24 12:42:58;;;;;;;4.60;1.30;;;;;44.52;97365.20;;;;110654;1250;41161;-70
2022/08/24 12:45:28;;;;;;;5.20;1.30;;;;;44.22;97359.00;;;;110666;1251;41779;-71
2022/08/24 12:48:12;;;;;;;2.90;1.20;;;;;44.30;97364.80;;;;110654;1250;41151;-70
2022/08/24 12:50:51;;;;;;;4.10;1.20;;;;;44.40;97367.00;;;;110803;1251;41904;-70
2022/08/24 12:53:48;;;;;;;2.60;1.10;;;;;44.20;97368.40;;;;110641;1251;41144;-70
2022/08/24 12:56:17;;;;;;;2.80;1.20;;;;;44.14;97367.40;;;;110816;1251;41266;-70
2022/08/24 12:58:48;;;;;;;2.60;1.40;;;;;43.98;97371.60;;;;110824;1252;41252;-70
2022/08/24 13:01:25;;;;;;;5.30;1.40;;;;;43.50;97372.00;;;;110710;1252;42053;-70
2022/08/24 13:04:34;;;;;;;2.90;1.30;;;;;42.98;97371.80;;;;110673;1251;41159;-70
2022/08/24 13:07:07;;;;;;;5.90;1.60;;;;;42.70;97372.00;;;;110634;1251;41141;-70
2022/08/24 13:09:40;;;;;;;2.70;1.30;;;;;42.82;97372.20;;;;110683;1251;41371;-70